Kobaia Nui — FGA8587 — position and weather

sailwx.info

Track history (hours):
 
Tides and Currents Weather Stations Pressure Air Temp Water Temp Dewpoint Dewpoint Depression Visibility Wind Speed Wind Dir Waves Ship Positions

Kobaia Nui

Last reported at 2017-Aug-24 15:04 UTC. Time now 2017-Sep-25 13:46 UTC.
Position N 47°21' W 003°09'.
Warning: this ship's position is 31 days out of date.

Length 15 m.

Type: Pleasure craft. MMSI: 227540860.

Date/timePositionNaut miles runAvg speedWind from/ knotsBaromVisibWave heightAir tempDewpointWater temp
2017-Aug-24 15:04N 47°21' W 003°09'0 1.0
2017-Aug-24 15:00N 47°21' W 003°09'2 4.8
2017-Aug-24 14:30N 47°22' W 003°06'3 5.2
2017-Aug-24 13:59N 47°23' W 003°03'2 0.8
2017-Aug-24 11:28N 47°24' W 002°60'2 5.1
2017-Aug-24 11:00N 47°26' W 002°59'3 6.2
2017-Aug-24 10:30N 47°29' W 002°57'3 6.6
2017-Aug-24 10:00N 47°32' W 002°55'6 0.4
2017-Aug-23 18:25N 47°35' W 002°48'0 0.0
2017-Aug-23 17:58N 47°35' W 002°48'0 0.0
2017-Aug-23 17:28N 47°35' W 002°48'0 0.0
2017-Aug-23 16:59N 47°35' W 002°48'2 4.1
2017-Aug-23 16:30N 47°34' W 002°50'2 4.3
2017-Aug-23 16:00N 47°34' W 002°53'4 7.8
2017-Aug-23 15:30N 47°31' W 002°57'4 7.1
2017-Aug-23 15:00N 47°29' W 003°00'6 5.9
2017-Aug-23 14:00N 47°26' W 003°09'3 6.5
2017-Aug-23 13:30N 47°28' W 003°13'3 6.1
2017-Aug-23 13:00N 47°29' W 003°17'3 5.9
2017-Aug-23 12:30N 47°30' W 003°21'3 5.5
2017-Aug-23 12:00N 47°32' W 003°24'3 5.5
2017-Aug-23 11:30N 47°33' W 003°28'22 1.1
2017-Aug-22 14:58N 47°43' W 003°58'14 5.0
2017-Aug-22 12:09N 47°37' W 003°39'1 5.5
2017-Aug-22 11:57N 47°37' W 003°37'3 5.6
2017-Aug-22 11:28N 47°36' W 003°34'3 5.8
2017-Aug-22 11:00N 47°34' W 003°30'3 5.3
2017-Aug-22 10:30N 47°34' W 003°26'2 4.4
2017-Aug-22 10:00N 47°32' W 003°24'3 6.5
2017-Aug-22 09:30N 47°29' W 003°22'4 7.3
2017-Aug-22 09:00N 47°27' W 003°18'4 8.4
2017-Aug-22 08:30N 47°24' W 003°13'9 0.4
2017-Aug-21 08:48N 47°22' W 002°60'2 4.7
2017-Aug-21 08:29N 47°22' W 003°02'2 4.0
2017-Aug-21 08:00N 47°22' W 003°05'2 3.3
2017-Aug-21 07:30N 47°22' W 003°07'2 0.0
2017-Aug-19 15:54N 47°22' W 003°05'8 1.4
2017-Aug-19 10:13N 47°21' W 002°53'1 3.2
2017-Aug-19 09:59N 47°21' W 002°54'3 5.6
2017-Aug-19 09:29N 47°20' W 002°58'8 0.4
2017-Aug-18 15:07N 47°25' W 003°06'1 8.5
2017-Aug-18 15:00N 47°26' W 003°06'3 6.2
2017-Aug-18 14:30N 47°29' W 003°05'0 0.4
2017-Aug-18 13:30N 47°29' W 003°05'9 0.4
2017-Aug-17 14:59N 47°25' W 003°17'3 5.4
2017-Aug-17 14:30N 47°26' W 003°21'3 5.4
2017-Aug-17 14:00N 47°28' W 003°24'3 6.5
2017-Aug-17 13:30N 47°29' W 003°28'3 6.5
2017-Aug-17 13:00N 47°31' W 003°33'3 6.0
2017-Aug-17 12:30N 47°32' W 003°36'4 6.8
2017-Aug-17 11:59N 47°34' W 003°41'47 1.6
2017-Aug-16 05:42N 47°54' W 004°45'2 4.8
2017-Aug-16 05:20N 47°54' W 004°47'2 4.8
2017-Aug-16 05:00N 47°55' W 004°49'2 4.7
2017-Aug-16 04:30N 47°56' W 004°52'2 4.8
2017-Aug-16 04:00N 47°58' W 004°55'3 5.5
2017-Aug-16 03:30N 47°59' W 004°59'4 5.6
2017-Aug-16 02:53N 48°01' W 005°03'5 5.5
2017-Aug-16 01:58N 48°04' W 005°09'6 5.9
2017-Aug-16 00:53N 48°10' W 005°12'5 5.3
2017-Aug-15 23:58N 48°15' W 005°13'5 5.1
2017-Aug-15 22:58N 48°20' W 005°14'5 4.9
2017-Aug-15 21:58N 48°25' W 005°16'  
Track history (hours):
 
Tides and Currents Weather Stations Pressure Air Temp Water Temp Dewpoint Dewpoint Depression Visibility Wind Speed Wind Dir Waves Ship Positions

Kobaia Nui

Last reported at 2017-Aug-24 15:04 UTC. Time now 2017-Sep-25 13:46 UTC.
Position N 47°21' W 003°09'.
Warning: this ship's position is 31 days out of date.

Length 15 m.

Type: Pleasure craft. MMSI: 227540860.

Date/timePositionNaut miles runAvg speedWind from/ knotsBaromVisibWave heightAir tempDewpointWater temp
2017-Aug-24 15:04N 47°21' W 003°09'0 1.0
2017-Aug-24 15:00N 47°21' W 003°09'2 4.8
2017-Aug-24 14:30N 47°22' W 003°06'3 5.2
2017-Aug-24 13:59N 47°23' W 003°03'2 0.8
2017-Aug-24 11:28N 47°24' W 002°60'2 5.1
2017-Aug-24 11:00N 47°26' W 002°59'3 6.2
2017-Aug-24 10:30N 47°29' W 002°57'3 6.6
2017-Aug-24 10:00N 47°32' W 002°55'6 0.4
2017-Aug-23 18:25N 47°35' W 002°48'0 0.0
2017-Aug-23 17:58N 47°35' W 002°48'0 0.0
2017-Aug-23 17:28N 47°35' W 002°48'0 0.0
2017-Aug-23 16:59N 47°35' W 002°48'2 4.1
2017-Aug-23 16:30N 47°34' W 002°50'2 4.3
2017-Aug-23 16:00N 47°34' W 002°53'4 7.8
2017-Aug-23 15:30N 47°31' W 002°57'4 7.1
2017-Aug-23 15:00N 47°29' W 003°00'6 5.9
2017-Aug-23 14:00N 47°26' W 003°09'3 6.5
2017-Aug-23 13:30N 47°28' W 003°13'3 6.1
2017-Aug-23 13:00N 47°29' W 003°17'3 5.9
2017-Aug-23 12:30N 47°30' W 003°21'3 5.5
2017-Aug-23 12:00N 47°32' W 003°24'3 5.5
2017-Aug-23 11:30N 47°33' W 003°28'22 1.1
2017-Aug-22 14:58N 47°43' W 003°58'14 5.0
2017-Aug-22 12:09N 47°37' W 003°39'1 5.5
2017-Aug-22 11:57N 47°37' W 003°37'3 5.6
2017-Aug-22 11:28N 47°36' W 003°34'3 5.8
2017-Aug-22 11:00N 47°34' W 003°30'3 5.3
2017-Aug-22 10:30N 47°34' W 003°26'2 4.4
2017-Aug-22 10:00N 47°32' W 003°24'3 6.5
2017-Aug-22 09:30N 47°29' W 003°22'4 7.3
2017-Aug-22 09:00N 47°27' W 003°18'4 8.4
2017-Aug-22 08:30N 47°24' W 003°13'9 0.4
2017-Aug-21 08:48N 47°22' W 002°60'2 4.7
2017-Aug-21 08:29N 47°22' W 003°02'2 4.0
2017-Aug-21 08:00N 47°22' W 003°05'2 3.3
2017-Aug-21 07:30N 47°22' W 003°07'2 0.0
2017-Aug-19 15:54N 47°22' W 003°05'8 1.4
2017-Aug-19 10:13N 47°21' W 002°53'1 3.2
2017-Aug-19 09:59N 47°21' W 002°54'3 5.6
2017-Aug-19 09:29N 47°20' W 002°58'8 0.4
2017-Aug-18 15:07N 47°25' W 003°06'1 8.5
2017-Aug-18 15:00N 47°26' W 003°06'3 6.2
2017-Aug-18 14:30N 47°29' W 003°05'0 0.4
2017-Aug-18 13:30N 47°29' W 003°05'9 0.4
2017-Aug-17 14:59N 47°25' W 003°17'3 5.4
2017-Aug-17 14:30N 47°26' W 003°21'3 5.4
2017-Aug-17 14:00N 47°28' W 003°24'3 6.5
2017-Aug-17 13:30N 47°29' W 003°28'3 6.5
2017-Aug-17 13:00N 47°31' W 003°33'3 6.0
2017-Aug-17 12:30N 47°32' W 003°36'4 6.8
2017-Aug-17 11:59N 47°34' W 003°41'47 1.6
2017-Aug-16 05:42N 47°54' W 004°45'2 4.8
2017-Aug-16 05:20N 47°54' W 004°47'2 4.8
2017-Aug-16 05:00N 47°55' W 004°49'2 4.7
2017-Aug-16 04:30N 47°56' W 004°52'2 4.8
2017-Aug-16 04:00N 47°58' W 004°55'3 5.5
2017-Aug-16 03:30N 47°59' W 004°59'4 5.6
2017-Aug-16 02:53N 48°01' W 005°03'5 5.5
2017-Aug-16 01:58N 48°04' W 005°09'6 5.9
2017-Aug-16 00:53N 48°10' W 005°12'5 5.3
2017-Aug-15 23:58N 48°15' W 005°13'5 5.1
2017-Aug-15 22:58N 48°20' W 005°14'5 4.9
2017-Aug-15 21:58N 48°25' W 005°16'  

Dump ship's entire track history